createdAt,value
2023-05-06T00:01:29.454Z,4.13
2023-05-06T00:03:56.651Z,4.03
2023-05-06T00:06:23.870Z,4.38
2023-05-06T00:08:51.145Z,4.15
2023-05-06T00:11:18.181Z,4.10
2023-05-06T00:13:45.323Z,3.67
2023-05-06T00:16:12.415Z,3.70
2023-05-06T00:18:39.495Z,3.70
2023-05-06T00:21:06.754Z,4.00
2023-05-06T00:23:33.821Z,3.65
2023-05-06T00:26:00.862Z,3.67
2023-05-06T00:28:27.904Z,3.70
2023-05-06T00:30:55.134Z,3.88
2023-05-06T00:33:22.202Z,3.78
2023-05-06T00:35:49.504Z,4.00
2023-05-06T00:38:17.115Z,3.45
2023-05-06T00:40:44.160Z,3.67
2023-05-06T00:43:11.593Z,3.58
2023-05-06T00:45:39.068Z,3.20
2023-05-06T00:48:07.327Z,3.35
2023-05-06T00:50:35.758Z,3.60
2023-05-06T00:53:05.827Z,3.53
2023-05-06T00:55:32.996Z,3.33
2023-05-06T00:58:01.109Z,3.42
2023-05-06T01:00:28.356Z,3.47
2023-05-06T01:02:55.565Z,3.20
2023-05-06T01:05:26.223Z,3.40
2023-05-06T01:08:28.903Z,3.20
2023-05-06T01:11:02.592Z,3.13
2023-05-06T01:13:41.219Z,3.15
2023-05-06T01:16:12.057Z,3.43
2023-05-06T01:18:40.134Z,3.15
2023-05-06T01:21:08.853Z,3.38
2023-05-06T01:23:58.684Z,3.40
2023-05-06T01:26:25.860Z,3.22
2023-05-06T01:28:54.275Z,3.60
2023-05-06T01:31:35.465Z,3.28
2023-05-06T01:34:18.444Z,3.28
2023-05-06T01:37:25.926Z,3.75
2023-05-06T01:39:58.781Z,3.47
2023-05-06T01:42:27.333Z,3.45
2023-05-06T01:44:57.438Z,3.63
2023-05-06T01:47:25.485Z,3.30
2023-05-06T01:49:52.748Z,3.03
2023-05-06T01:52:22.138Z,2.95
2023-05-06T01:54:49.394Z,3.50
2023-05-06T01:57:16.464Z,3.25
2023-05-06T01:59:43.719Z,3.08
2023-05-06T02:02:10.813Z,3.15
2023-05-06T02:04:37.928Z,3.50
2023-05-06T02:07:05.749Z,3.30
2023-05-06T02:09:32.852Z,3.03
2023-05-06T02:12:02.365Z,3.33
2023-05-06T02:14:29.410Z,3.60
2023-05-06T02:16:57.970Z,2.90
2023-05-06T02:19:25.025Z,3.13
2023-05-06T02:21:52.130Z,3.90
2023-05-06T02:24:19.181Z,3.20
2023-05-06T02:26:46.200Z,2.72
2023-05-06T02:29:13.360Z,3.00
2023-05-06T02:31:40.520Z,2.85
2023-05-06T02:34:09.489Z,3.25
2023-05-06T02:36:36.610Z,2.92
2023-05-06T02:39:04.798Z,2.78
2023-05-06T02:41:31.746Z,3.10
2023-05-06T02:43:58.782Z,3.40
2023-05-06T02:46:26.166Z,2.65
2023-05-06T02:48:53.222Z,2.60
2023-05-06T02:51:20.268Z,3.17
2023-05-06T02:53:47.310Z,3.25
2023-05-06T02:56:14.401Z,2.85
2023-05-06T02:58:41.497Z,2.88
2023-05-06T03:01:08.605Z,2.90
2023-05-06T03:03:36.103Z,2.58
2023-05-06T03:06:03.125Z,3.03
2023-05-06T03:08:30.298Z,2.70
2023-05-06T03:10:57.387Z,2.65
2023-05-06T03:13:24.564Z,2.50
2023-05-06T03:15:54.026Z,2.80
2023-05-06T03:18:21.677Z,2.75
2023-05-06T03:20:49.794Z,3.00
2023-05-06T03:23:17.602Z,2.88
2023-05-06T03:25:45.054Z,3.33
2023-05-06T03:28:12.244Z,2.80
2023-05-06T03:30:41.079Z,2.72
2023-05-06T03:33:08.770Z,2.70
2023-05-06T03:35:36.229Z,2.90
2023-05-06T03:38:03.274Z,3.10
2023-05-06T03:40:50.761Z,2.50
2023-05-06T03:43:18.026Z,2.97
2023-05-06T03:45:48.209Z,2.45
2023-05-06T03:48:15.628Z,2.85
2023-05-06T03:50:44.214Z,2.83
2023-05-06T03:53:12.815Z,2.53
2023-05-06T03:55:42.447Z,2.90
2023-05-06T03:58:11.712Z,2.38
2023-05-06T04:00:40.612Z,2.35
2023-05-06T04:03:07.793Z,2.60
2023-05-06T04:05:52.935Z,2.60
2023-05-06T04:08:24.078Z,3.17
2023-05-06T04:10:51.259Z,2.42
2023-05-06T04:13:37.721Z,2.25
2023-05-06T04:16:10.906Z,2.90
2023-05-06T04:18:41.435Z,2.63
2023-05-06T04:21:14.331Z,2.50
2023-05-06T04:23:44.443Z,2.80
2023-05-06T04:26:15.713Z,2.60
2023-05-06T04:28:44.297Z,2.38
2023-05-06T04:31:14.631Z,2.33
2023-05-06T04:33:46.798Z,2.30
2023-05-06T04:36:17.404Z,2.38
2023-05-06T04:38:57.208Z,2.38
2023-05-06T04:41:25.935Z,2.35
2023-05-06T04:43:52.960Z,2.10
2023-05-06T04:46:24.039Z,2.80
2023-05-06T04:48:52.687Z,2.40
2023-05-06T04:51:20.892Z,3.15
2023-05-06T04:53:48.028Z,2.30
2023-05-06T04:56:15.215Z,2.28
2023-05-06T04:58:42.805Z,2.35
2023-05-06T05:01:10.841Z,2.60
2023-05-06T05:03:37.955Z,2.20
2023-05-06T05:06:06.294Z,2.30
2023-05-06T05:08:33.476Z,2.45
2023-05-06T05:11:01.813Z,2.40
2023-05-06T05:13:31.063Z,2.45
2023-05-06T05:15:58.761Z,2.47
2023-05-06T05:18:29.361Z,2.35
2023-05-06T05:21:00.941Z,2.35
2023-05-06T05:23:28.922Z,2.40
2023-05-06T05:25:56.129Z,2.50
2023-05-06T05:28:23.378Z,2.42
2023-05-06T05:30:51.427Z,2.47
2023-05-06T05:33:18.854Z,2.55
2023-05-06T05:35:46.256Z,2.50
2023-05-06T05:38:14.508Z,3.75
2023-05-06T05:40:42.202Z,2.55
2023-05-06T05:43:09.566Z,2.53
2023-05-06T05:45:39.509Z,2.40
2023-05-06T05:48:08.720Z,2.70
2023-05-06T05:50:36.018Z,2.30
2023-05-06T05:53:03.109Z,2.60
2023-05-06T05:55:30.932Z,2.30
2023-05-06T05:57:58.279Z,2.33
2023-05-06T06:00:27.615Z,2.28
2023-05-06T06:03:02.207Z,2.30
2023-05-06T06:05:29.390Z,2.05
2023-05-06T06:07:58.272Z,2.20
2023-05-06T06:10:26.529Z,2.72
2023-05-06T06:12:54.659Z,2.40
2023-05-06T06:15:25.422Z,2.65
2023-05-06T06:17:55.163Z,2.42
2023-05-06T06:22:51.483Z,2.70
2023-05-06T06:25:20.252Z,2.75
2023-05-06T06:27:47.422Z,2.67
2023-05-06T06:30:14.632Z,2.80
2023-05-06T06:32:53.140Z,2.60
2023-05-06T06:35:20.544Z,2.63
2023-05-06T06:37:47.697Z,2.25
2023-05-06T06:40:15.004Z,2.28
2023-05-06T06:42:42.111Z,2.88
2023-05-06T06:45:29.411Z,2.58
2023-05-06T06:47:56.668Z,2.53
2023-05-06T06:50:23.730Z,2.40
2023-05-06T06:52:50.803Z,2.35
2023-05-06T06:55:18.022Z,2.58
2023-05-06T06:57:45.167Z,2.72
2023-05-06T07:00:12.781Z,2.50
2023-05-06T07:02:39.922Z,3.30
2023-05-06T07:05:07.115Z,2.58
2023-05-06T07:07:34.193Z,3.20
2023-05-06T07:10:01.348Z,3.03
2023-05-06T07:12:28.689Z,2.90
2023-05-06T07:14:55.832Z,2.83
2023-05-06T07:17:22.911Z,2.60
2023-05-06T07:19:50.065Z,2.80
2023-05-06T07:22:17.134Z,2.40
2023-05-06T07:24:44.238Z,2.53
2023-05-06T07:27:11.319Z,2.53
2023-05-06T07:29:38.444Z,2.17
2023-05-06T07:32:05.778Z,2.40
2023-05-06T07:34:34.310Z,2.50
2023-05-06T07:37:01.827Z,2.83
2023-05-06T07:39:28.913Z,2.65
2023-05-06T07:41:56.408Z,2.80
2023-05-06T07:44:23.552Z,2.70
2023-05-06T07:46:51.161Z,2.70
2023-05-06T07:49:18.345Z,2.75
2023-05-06T07:51:45.738Z,2.92
2023-05-06T07:54:13.994Z,2.63
2023-05-06T07:56:41.210Z,3.10
2023-05-06T07:59:08.262Z,2.95
2023-05-06T08:01:35.510Z,3.00
2023-05-06T08:04:02.697Z,3.30
2023-05-06T08:06:29.765Z,3.10
2023-05-06T08:08:56.879Z,2.83
2023-05-06T08:11:23.938Z,2.75
2023-05-06T08:13:51.032Z,2.83
2023-05-06T08:16:18.182Z,3.20
2023-05-06T08:18:45.271Z,2.70
2023-05-06T08:21:12.411Z,3.03
2023-05-06T08:23:39.487Z,3.08
2023-05-06T08:26:07.032Z,2.58
2023-05-06T08:28:34.361Z,2.70
2023-05-06T08:31:01.565Z,3.10
2023-05-06T08:33:30.919Z,2.90
2023-05-06T08:35:59.243Z,3.60
2023-05-06T08:38:26.735Z,3.60
2023-05-06T08:40:55.041Z,4.53
2023-05-06T08:43:22.691Z,3.25
2023-05-06T08:45:50.161Z,3.83
2023-05-06T08:48:17.648Z,4.78
2023-05-06T08:50:44.790Z,3.60
2023-05-06T08:53:13.689Z,3.38
2023-05-06T08:55:42.753Z,3.40
2023-05-06T08:58:13.829Z,4.30
2023-05-06T09:00:41.278Z,3.85
2023-05-06T09:03:08.391Z,3.80
2023-05-06T09:05:35.599Z,4.05
2023-05-06T09:08:03.042Z,4.15
2023-05-06T09:10:42.846Z,4.15
2023-05-06T09:13:14.212Z,4.00
2023-05-06T09:15:43.217Z,3.85
2023-05-06T09:18:11.960Z,3.78
2023-05-06T09:20:45.245Z,3.50
2023-05-06T09:23:14.432Z,3.67
2023-05-06T09:25:42.187Z,3.90
2023-05-06T09:28:11.449Z,3.78
2023-05-06T09:30:42.940Z,4.30
2023-05-06T09:33:10.834Z,4.40
2023-05-06T09:35:40.061Z,4.25
2023-05-06T09:38:07.946Z,4.50
2023-05-06T09:40:36.181Z,4.13
2023-05-06T09:43:04.137Z,4.30
2023-05-06T09:45:31.592Z,4.22
2023-05-06T09:47:59.485Z,4.43
2023-05-06T09:50:27.014Z,4.30
2023-05-06T09:52:55.406Z,4.70
2023-05-06T09:55:26.851Z,5.07
2023-05-06T09:57:55.602Z,4.78
2023-05-06T10:00:28.311Z,4.82
2023-05-06T10:02:56.120Z,3.85
2023-05-06T10:05:25.718Z,4.30
2023-05-06T10:07:55.105Z,4.80
2023-05-06T10:10:25.414Z,4.13
2023-05-06T10:12:53.088Z,4.50
2023-05-06T10:15:20.325Z,4.93
2023-05-06T10:17:50.361Z,4.57
2023-05-06T10:20:18.077Z,4.25
2023-05-06T10:23:14.244Z,4.32
2023-05-06T10:25:42.922Z,4.38
2023-05-06T10:28:17.386Z,4.50
2023-05-06T10:30:59.105Z,4.80
2023-05-06T10:33:27.656Z,4.80
2023-05-06T10:35:58.823Z,4.70
2023-05-06T10:38:31.721Z,6.45
2023-05-06T10:41:00.695Z,4.75
2023-05-06T10:43:35.131Z,4.88
2023-05-06T10:46:03.207Z,5.45
2023-05-06T10:48:31.074Z,5.53
2023-05-06T10:51:16.574Z,5.35
2023-05-06T10:54:19.896Z,5.68
2023-05-06T10:56:49.943Z,5.45
2023-05-06T10:59:26.834Z,5.53
2023-05-06T11:02:08.985Z,6.68
2023-05-06T11:04:37.729Z,5.45
2023-05-06T11:07:13.306Z,5.65
2023-05-06T11:10:06.384Z,5.50
2023-05-06T11:12:52.993Z,5.82
2023-05-06T11:15:27.525Z,6.05
2023-05-06T11:17:57.669Z,6.13
2023-05-06T11:20:26.810Z,5.60
2023-05-06T11:22:54.625Z,5.60
2023-05-06T11:25:42.974Z,6.15
2023-05-06T11:28:15.058Z,5.95
2023-05-06T11:30:44.477Z,5.95
2023-05-06T11:33:19.378Z,6.23
2023-05-06T11:35:46.889Z,6.80
2023-05-06T11:38:14.017Z,6.20
2023-05-06T11:40:44.304Z,5.95
2023-05-06T11:43:15.115Z,5.80
2023-05-06T11:45:49.228Z,6.03
2023-05-06T11:48:17.295Z,6.18
2023-05-06T11:50:48.888Z,5.85
2023-05-06T11:53:21.256Z,5.63
2023-05-06T11:55:49.303Z,5.85
2023-05-06T11:58:21.401Z,6.18
2023-05-06T12:00:59.625Z,6.55
2023-05-06T12:03:28.857Z,6.60
2023-05-06T12:05:56.360Z,5.95
2023-05-06T12:08:30.632Z,5.53
2023-05-06T12:11:03.155Z,5.75
2023-05-06T12:13:30.626Z,5.50
2023-05-06T12:16:01.733Z,6.53
2023-05-06T12:18:29.524Z,6.10
2023-05-06T12:20:57.694Z,6.28
2023-05-06T12:23:25.029Z,6.38
2023-05-06T12:26:06.293Z,6.50
2023-05-06T12:28:37.495Z,6.25
2023-05-06T12:31:21.094Z,6.35
2023-05-06T12:33:50.009Z,6.50
2023-05-06T12:36:18.451Z,6.30
2023-05-06T12:38:59.679Z,6.72
2023-05-06T12:41:47.719Z,6.45
2023-05-06T12:44:39.910Z,7.53
2023-05-06T12:47:19.961Z,8.43
2023-05-06T12:50:01.149Z,7.47
2023-05-06T12:52:30.163Z,7.05
2023-05-06T12:54:58.014Z,7.03
2023-05-06T12:57:25.074Z,7.30
2023-05-06T12:59:53.920Z,6.10
2023-05-06T13:02:21.040Z,7.20
2023-05-06T13:04:49.357Z,7.15
2023-05-06T13:07:16.708Z,6.72
2023-05-06T13:09:44.691Z,6.55
2023-05-06T13:12:11.915Z,7.78
2023-05-06T13:14:40.297Z,7.30
2023-05-06T13:17:08.391Z,7.68
2023-05-06T13:19:36.064Z,7.68
2023-05-06T13:22:03.332Z,7.38
2023-05-06T13:24:30.928Z,7.75
2023-05-06T13:27:01.075Z,8.10
2023-05-06T13:31:57.072Z,7.18
2023-05-06T13:34:24.363Z,7.75
2023-05-06T13:36:52.147Z,8.18
2023-05-06T13:39:19.979Z,8.73
2023-05-06T13:41:50.558Z,7.90
2023-05-06T13:44:18.815Z,8.35
2023-05-06T13:46:46.930Z,9.52
2023-05-06T13:49:17.013Z,8.20
2023-05-06T13:51:44.183Z,8.00
2023-05-06T13:54:11.386Z,7.65
2023-05-06T13:56:38.629Z,8.63
2023-05-06T13:59:05.779Z,7.13
2023-05-06T14:01:33.311Z,7.47
2023-05-06T14:04:00.339Z,9.43
2023-05-06T14:06:27.801Z,6.55
2023-05-06T14:08:55.142Z,7.40
2023-05-06T14:11:22.690Z,7.35
2023-05-06T14:13:49.815Z,6.82
2023-05-06T14:16:17.044Z,6.78
2023-05-06T14:18:44.215Z,6.88
2023-05-06T14:21:11.238Z,7.03
2023-05-06T14:23:38.277Z,6.93
2023-05-06T14:26:05.452Z,7.20
2023-05-06T14:28:32.483Z,7.43
2023-05-06T14:30:59.718Z,6.97
2023-05-06T14:33:26.863Z,8.02
2023-05-06T14:35:53.997Z,7.57
2023-05-06T14:38:21.072Z,6.95
2023-05-06T14:40:48.174Z,7.55
2023-05-06T14:43:15.169Z,6.60
2023-05-06T14:45:42.328Z,6.93
2023-05-06T14:48:09.483Z,8.27
2023-05-06T14:50:36.633Z,15.95
2023-05-06T14:53:04.077Z,6.90
2023-05-06T14:55:31.352Z,6.60
2023-05-06T14:57:58.419Z,6.47
2023-05-06T15:00:25.722Z,6.60
2023-05-06T15:02:52.780Z,6.50
2023-05-06T15:05:19.915Z,7.00
2023-05-06T15:07:47.091Z,6.60
2023-05-06T15:10:14.170Z,6.85
2023-05-06T15:12:41.309Z,6.60
2023-05-06T15:15:09.042Z,7.70
2023-05-06T15:17:36.591Z,6.50
2023-05-06T15:20:04.652Z,6.57
2023-05-06T15:22:31.675Z,6.43
2023-05-06T15:24:58.708Z,6.55
2023-05-06T15:27:25.898Z,6.07
2023-05-06T15:29:53.002Z,6.70
2023-05-06T15:32:20.182Z,6.55
2023-05-06T15:34:47.352Z,5.97
2023-05-06T15:37:19.301Z,7.45
2023-05-06T15:39:48.021Z,6.47
2023-05-06T15:42:16.084Z,6.30
2023-05-06T15:44:43.354Z,6.13
2023-05-06T15:47:10.576Z,7.10
2023-05-06T15:52:07.666Z,7.03
2023-05-06T15:54:37.480Z,6.72
2023-05-06T15:57:06.713Z,7.45
2023-05-06T15:59:34.344Z,6.57
2023-05-06T16:02:26.230Z,6.45
2023-05-06T16:04:48.827Z,6.20
2023-05-06T16:07:16.812Z,6.00
2023-05-06T16:09:44.382Z,6.22
2023-05-06T16:12:11.514Z,8.13
2023-05-06T16:14:38.496Z,8.45
2023-05-06T16:17:05.596Z,6.68
2023-05-06T16:19:35.026Z,7.38
2023-05-06T16:22:02.895Z,7.80
2023-05-06T16:24:29.912Z,7.35
2023-05-06T16:26:57.047Z,9.88
2023-05-06T16:29:24.284Z,7.00
2023-05-06T16:31:51.543Z,8.77
2023-05-06T16:34:18.670Z,7.95
2023-05-06T16:36:46.118Z,6.72
2023-05-06T16:39:13.285Z,6.47
2023-05-06T16:41:40.347Z,6.00
2023-05-06T16:44:07.476Z,6.50
2023-05-06T16:46:34.571Z,6.68
2023-05-06T16:49:03.917Z,6.97
2023-05-06T16:51:31.660Z,6.30
2023-05-06T16:53:58.751Z,6.03
2023-05-06T16:56:32.987Z,6.63
2023-05-06T16:59:07.436Z,6.40
2023-05-06T17:01:34.577Z,6.35
2023-05-06T17:04:01.632Z,5.40
2023-05-06T17:06:31.406Z,6.22
2023-05-06T17:08:59.136Z,6.68
2023-05-06T17:11:26.273Z,6.25
2023-05-06T17:13:54.398Z,7.35
2023-05-06T17:16:21.843Z,6.88
2023-05-06T17:18:48.938Z,6.18
2023-05-06T17:21:16.433Z,5.78
2023-05-06T17:23:44.345Z,5.68
2023-05-06T17:26:11.450Z,5.90
2023-05-06T17:28:38.633Z,5.93
2023-05-06T17:31:05.940Z,5.90
2023-05-06T17:33:33.062Z,6.72
2023-05-06T17:36:00.257Z,6.32
2023-05-06T17:38:27.329Z,6.03
2023-05-06T17:40:54.405Z,6.68
2023-05-06T17:43:21.491Z,6.20
2023-05-06T17:45:48.768Z,6.70
2023-05-06T17:48:15.882Z,6.03
2023-05-06T17:50:42.972Z,6.53
2023-05-06T17:53:10.096Z,6.25
2023-05-06T17:55:37.188Z,6.57
2023-05-06T17:58:04.284Z,6.38
2023-05-06T18:00:31.610Z,6.30
2023-05-06T18:02:59.261Z,6.40
2023-05-06T18:05:26.631Z,6.50
2023-05-06T18:07:53.651Z,6.72
2023-05-06T18:10:20.784Z,6.18
2023-05-06T18:12:48.249Z,6.65
2023-05-06T18:15:15.350Z,6.15
2023-05-06T18:17:42.483Z,7.45
2023-05-06T18:20:10.469Z,6.18
2023-05-06T18:22:39.196Z,5.88
2023-05-06T18:25:07.404Z,6.32
2023-05-06T18:27:34.629Z,6.32
2023-05-06T18:30:01.828Z,6.80
2023-05-06T18:32:28.974Z,6.60
2023-05-06T18:34:56.217Z,5.95
2023-05-06T18:37:23.608Z,6.22
2023-05-06T18:39:50.632Z,5.90
2023-05-06T18:42:17.720Z,6.35
2023-05-06T18:44:44.960Z,5.70
2023-05-06T18:47:12.203Z,5.97
2023-05-06T18:49:39.298Z,5.60
2023-05-06T18:52:06.478Z,6.60
2023-05-06T18:54:33.722Z,6.13
2023-05-06T18:57:01.320Z,6.55
2023-05-06T18:59:28.527Z,6.97
2023-05-06T19:01:55.727Z,7.45
2023-05-06T19:04:22.760Z,7.40
2023-05-06T19:06:51.733Z,7.18
2023-05-06T19:09:18.835Z,7.03
2023-05-06T19:11:45.909Z,7.13
2023-05-06T19:14:12.995Z,6.68
2023-05-06T19:16:40.257Z,6.88
2023-05-06T19:19:07.560Z,8.10
2023-05-06T19:21:35.336Z,7.38
2023-05-06T19:24:02.462Z,7.45
2023-05-06T19:26:29.708Z,7.88
2023-05-06T19:28:56.807Z,8.10
2023-05-06T19:31:23.998Z,8.18
2023-05-06T19:33:51.082Z,8.35
2023-05-06T19:36:18.186Z,8.48
2023-05-06T19:38:45.245Z,8.55
2023-05-06T19:41:12.342Z,7.93
2023-05-06T19:43:43.921Z,7.80
2023-05-06T19:46:12.016Z,8.20
2023-05-06T19:48:39.590Z,7.63
2023-05-06T19:51:07.068Z,8.38
2023-05-06T19:53:34.690Z,8.38
2023-05-06T19:56:12.583Z,8.65
2023-05-06T19:58:39.988Z,7.93
2023-05-06T20:01:07.105Z,8.25
2023-05-06T20:03:35.040Z,8.32
2023-05-06T20:06:02.765Z,8.25
2023-05-06T20:08:31.149Z,8.63
2023-05-06T20:10:58.414Z,7.95
2023-05-06T20:13:26.135Z,8.50
2023-05-06T20:15:54.983Z,8.90
2023-05-06T20:18:22.929Z,8.43
2023-05-06T20:20:50.045Z,8.80
2023-05-06T20:23:17.138Z,8.25
2023-05-06T20:25:44.245Z,7.97
2023-05-06T20:28:11.365Z,7.78
2023-05-06T20:30:38.875Z,7.75
2023-05-06T20:33:06.235Z,7.22
2023-05-06T20:35:38.337Z,8.88
2023-05-06T20:38:06.286Z,7.50
2023-05-06T20:40:35.916Z,7.50
2023-05-06T20:43:03.054Z,7.55
2023-05-06T20:45:31.205Z,7.20
2023-05-06T20:47:58.900Z,7.60
2023-05-06T20:50:26.209Z,7.07
2023-05-06T20:52:54.598Z,8.18
2023-05-06T20:55:23.480Z,7.60
2023-05-06T20:57:51.053Z,9.63
2023-05-06T21:00:19.053Z,8.50
2023-05-06T21:02:46.348Z,7.80
2023-05-06T21:05:13.773Z,7.68
2023-05-06T21:07:41.283Z,8.00
2023-05-06T21:10:09.890Z,7.00
2023-05-06T21:12:37.344Z,7.30
2023-05-06T21:15:05.099Z,7.43
2023-05-06T21:17:32.376Z,7.95
2023-05-06T21:19:59.379Z,8.20
2023-05-06T21:22:26.499Z,8.30
2023-05-06T21:24:53.615Z,8.25
2023-05-06T21:27:20.773Z,7.97
2023-05-06T21:29:47.848Z,7.72
2023-05-06T21:32:15.015Z,7.88
2023-05-06T21:34:42.071Z,8.23
2023-05-06T21:37:09.166Z,7.75
2023-05-06T21:39:36.174Z,9.48
2023-05-06T21:42:03.277Z,8.10
2023-05-06T21:44:30.604Z,7.95
2023-05-06T21:46:57.787Z,8.57
2023-05-06T21:49:24.916Z,7.72
2023-05-06T21:51:51.920Z,8.52
2023-05-06T21:54:18.956Z,8.02
2023-05-06T21:56:46.559Z,8.80
2023-05-06T21:59:13.911Z,8.32
2023-05-06T22:01:40.913Z,8.15
2023-05-06T22:04:13.141Z,8.25
2023-05-06T22:06:40.625Z,7.70
2023-05-06T22:09:09.899Z,7.97
2023-05-06T22:11:41.031Z,7.53
2023-05-06T22:14:08.310Z,8.25
2023-05-06T22:16:37.977Z,7.97
2023-05-06T22:19:06.689Z,9.50
2023-05-06T22:21:34.981Z,8.88
2023-05-06T22:24:02.205Z,9.23
2023-05-06T22:26:29.328Z,9.52
2023-05-06T22:28:56.847Z,10.18
2023-05-06T22:31:25.011Z,8.57
2023-05-06T22:33:58.020Z,8.93
2023-05-06T22:36:29.296Z,9.60
2023-05-06T22:38:56.671Z,9.50
2023-05-06T22:41:23.860Z,9.88
2023-05-06T22:43:51.077Z,10.10
2023-05-06T22:46:19.461Z,10.38
2023-05-06T22:48:46.603Z,11.45
2023-05-06T22:51:15.936Z,11.77
2023-05-06T22:53:43.229Z,10.73
2023-05-06T22:56:10.543Z,10.95
2023-05-06T22:58:37.611Z,11.52
2023-05-06T23:01:04.923Z,11.93
2023-05-06T23:03:32.143Z,11.00
2023-05-06T23:05:59.220Z,12.10
2023-05-06T23:08:26.266Z,12.70
2023-05-06T23:10:53.311Z,12.75
2023-05-06T23:13:20.607Z,12.30
2023-05-06T23:15:47.773Z,11.00
2023-05-06T23:18:15.017Z,10.88
2023-05-06T23:20:42.448Z,11.65
2023-05-06T23:23:10.816Z,11.77
2023-05-06T23:25:38.183Z,11.20
2023-05-06T23:28:05.495Z,11.02
2023-05-06T23:30:32.590Z,10.23
2023-05-06T23:32:59.736Z,11.38
2023-05-06T23:35:26.940Z,11.45
2023-05-06T23:37:53.988Z,9.40
2023-05-06T23:40:21.162Z,10.70
2023-05-06T23:42:48.296Z,10.85
2023-05-06T23:45:15.417Z,9.68
2023-05-06T23:47:42.528Z,10.40
2023-05-06T23:50:10.144Z,10.65
2023-05-06T23:52:38.347Z,10.05
2023-05-06T23:55:06.470Z,10.27
2023-05-06T23:57:33.553Z,10.45
